Portada
METAR-TAF:

METAR-TAF

Aeroports :

Fairfield Municipal Airport

Fairfield, Illinois, Estats Units d'Amèrica

latitud: 38-22-43N, longitud: 088-24-46W, altitud: 133 m

Observació

L'informe es va fer fa 10 minuts, a les 11:15 UTC
Vent 4 kt del Nord-Oest
Temperatura -11°C
Humitat 72%
Pressió 1034 hPa
Visibilitat: 16.1 km
Cel clar

METAR: KFWC 121115Z AUTO 32004KT 10SM CLR M11/M15 A3052 RMK AO1 T11111153

Hora: 05:25 (11:25 UTC)


TAF: manca

Observacions i pronòstics meteorològics de més de 4000 aeroports (METAR i TAF).

Les estacions disponibles són els punts grocs i vermells al mapa.

Posi el ratolí al punt desitjat per veure el nom de l'estació.

Feu clic per veure les observacions i els pronòstics meteorològics.

Per canviar el mapa: feu clic els botons verds amb una creu de color negre per apropar; al botó verd amb un guió per allunyar la imatge; o en les fletxes verdes per a mapes adjacents.


METAR-TAF: